オークランド の空港の天気 - METARとTAF

オークランド国際空港 ( NZAA / AKL ) - ニュージーランド オークランド|オークランド
飛行場実況気象(Metar)
観測時間11/16 05:30 NZDT (11/15 16:30 UTC)
風向・風速東 2m/s
視程10km以上
天気現象
なし
気温12℃
湿度94%
気圧1023hPa
METARNZAA 151630Z AUTO 10003KT 9999 NCD 12/11 Q1023 NOSIG
過去の天気等 Google飛行場航空写真 Wunderground天気予報

過去48時間のMETAR

飛行場予報(TAF)
発表時間: 11/16 00:03 NZDT (11/15 11:03 UTC)
予報対象時間: 16日1時 NZDT ~ 17日1時 NZDT
風向・風速東 3m/s
視程10km以上
少しの雲 雲底高度 910m
16日11時 NZDT ~ 16日13時 NZDT に徐々に
風向・風速北東 5m/s
16日15時 NZDT ~ 16日17時 NZDT に徐々に
風向・風速西 3m/s
TAF NZAA 151103Z 1512/1612 10005KT 9999 FEW030
BECMG 1522/1600 04010KT
BECMG 1602/1604 27005KT